createdAt,value
2019-04-26T00:00:10.073Z,1096.89
2019-04-26T00:01:09.842Z,1096.48
2019-04-26T00:02:09.871Z,1096.24
2019-04-26T00:03:10.216Z,1096.04
2019-04-26T00:04:10.192Z,1095.9
2019-04-26T00:05:10.130Z,1095.71
2019-04-26T00:06:09.011Z,1095.45
2019-04-26T00:07:10.402Z,1095.22
2019-04-26T00:08:09.231Z,1094.77
2019-04-26T00:09:09.380Z,1094.42
2019-04-26T00:10:10.346Z,1094.17
2019-04-26T00:11:09.611Z,1094.09
2019-04-26T00:12:09.823Z,1093.65
2019-04-26T00:13:09.815Z,1093.59
2019-04-26T00:14:09.851Z,1093.3
2019-04-26T00:15:10.069Z,1092.73
2019-04-26T00:16:08.938Z,1092.23
2019-04-26T00:17:09.217Z,1091.43
2019-04-26T00:18:08.942Z,1091.08
2019-04-26T00:19:09.399Z,1090.7
2019-04-26T00:20:09.031Z,1090.53
2019-04-26T00:21:09.592Z,1090.07
2019-04-26T00:22:08.981Z,1089.56
2019-04-26T00:23:10.547Z,1088.65
2019-04-26T00:24:08.983Z,1087.63
2019-04-26T00:25:09.945Z,1086.34
2019-04-26T00:26:08.955Z,1085.24
2019-04-26T00:27:08.967Z,1084.13
2019-04-26T00:28:08.992Z,1082.8
2019-04-26T00:29:08.997Z,1082.21
2019-04-26T00:30:08.986Z,1081.6
2019-04-26T00:31:08.992Z,1081.16
2019-04-26T00:32:08.995Z,1080.95
2019-04-26T00:33:08.980Z,1080.75
2019-04-26T00:34:09.008Z,1080.56
2019-04-26T00:35:09.003Z,1080.05
2019-04-26T00:36:09.008Z,1079.89
2019-04-26T00:37:08.988Z,1079.4
2019-04-26T00:38:09.000Z,1078.95
2019-04-26T00:39:08.982Z,1077.95
2019-04-26T00:40:09.010Z,1077.22
2019-04-26T00:41:09.018Z,1076.69
2019-04-26T00:42:08.997Z,1076.14
2019-04-26T00:43:09.033Z,1074.89
2019-04-26T00:44:09.016Z,1073.44
2019-04-26T00:45:09.042Z,1072.6
2019-04-26T00:46:09.002Z,1071.57
2019-04-26T00:47:08.990Z,1070.9
2019-04-26T00:48:09.015Z,1070.04
2019-04-26T00:49:09.022Z,1069.47
2019-04-26T00:50:09.029Z,1069.05
2019-04-26T00:51:09.004Z,1068.46
2019-04-26T00:52:09.004Z,1067.81
2019-04-26T00:53:09.032Z,1067.31
2019-04-26T00:54:09.018Z,1066.92
2019-04-26T00:55:09.031Z,1066.33
2019-04-26T00:56:09.037Z,1066.04
2019-04-26T00:57:09.036Z,1065.53
2019-04-26T00:58:09.043Z,1065.53
2019-04-26T00:59:09.158Z,1065.03
2019-04-26T01:00:09.056Z,1064.46
2019-04-26T01:01:09.051Z,1063.95
2019-04-26T01:02:09.059Z,1063.43
2019-04-26T01:03:09.037Z,1062.62
2019-04-26T01:04:09.045Z,1061.64
2019-04-26T01:05:09.055Z,1061.25
2019-04-26T01:06:09.061Z,1060.62
2019-04-26T01:07:09.040Z,1060.22
2019-04-26T01:08:09.071Z,1059.97
2019-04-26T01:09:09.052Z,1059.62
2019-04-26T01:10:09.043Z,1058.66
2019-04-26T01:11:09.088Z,1057.74
2019-04-26T01:12:09.042Z,1056.53
2019-04-26T01:13:09.064Z,1054.83
2019-04-26T01:14:09.073Z,1053.47
2019-04-26T01:15:09.061Z,1052.05
2019-04-26T01:16:09.072Z,1051.02
2019-04-26T01:17:10.121Z,1050.5
2019-04-26T01:18:09.060Z,1049.6
2019-04-26T01:19:09.060Z,1048.55
2019-04-26T01:20:09.055Z,1047.47
2019-04-26T01:21:09.060Z,1046.98
2019-04-26T01:22:09.079Z,1046.53
2019-04-26T01:23:09.053Z,1045.87
2019-04-26T01:24:09.058Z,1045.69
2019-04-26T01:25:09.086Z,1045.37
2019-04-26T01:26:09.071Z,1044.86
2019-04-26T01:27:09.080Z,1043.61
2019-04-26T01:28:09.068Z,1042.4
2019-04-26T01:29:09.105Z,1041.61
2019-04-26T01:30:09.077Z,1040.97
2019-04-26T01:31:09.103Z,1041.01
2019-04-26T01:32:09.086Z,1040.5
2019-04-26T01:33:09.101Z,1039.6
2019-04-26T01:34:09.099Z,1038.86
2019-04-26T01:35:09.116Z,1038.01
2019-04-26T01:36:13.020Z,1036.66
2019-04-26T01:37:09.085Z,1034.54
2019-04-26T01:38:09.103Z,1032.6
2019-04-26T01:39:09.097Z,1030.24
2019-04-26T01:40:09.100Z,1028.05
2019-04-26T01:41:09.273Z,1026.4
2019-04-26T01:42:09.186Z,1025.51
2019-04-26T01:43:09.123Z,1024.47
2019-04-26T01:44:09.136Z,1023.5
2019-04-26T01:45:09.127Z,1022.6
2019-04-26T01:46:09.417Z,1021.93
2019-04-26T01:47:09.117Z,1021.23
2019-04-26T01:48:09.184Z,1020.72
2019-04-26T01:49:09.132Z,1020.15
2019-04-26T01:50:09.100Z,1019.64
2019-04-26T01:51:09.130Z,1019.7
2019-04-26T01:52:09.134Z,1019.34
2019-04-26T01:53:09.114Z,1018.13
2019-04-26T01:54:09.123Z,1017.67
2019-04-26T01:55:09.129Z,1017.21
2019-04-26T01:56:09.157Z,1015.79
2019-04-26T01:57:09.132Z,1014.07
2019-04-26T01:58:09.132Z,1013.18
2019-04-26T01:59:09.135Z,1012.3
2019-04-26T02:00:09.160Z,1012.15
2019-04-26T02:01:09.110Z,1011.78
2019-04-26T02:02:09.217Z,1011.16
2019-04-26T02:03:09.166Z,1010.28
2019-04-26T02:04:09.126Z,1009.77
2019-04-26T02:05:09.133Z,1009.17
2019-04-26T02:06:09.143Z,1009.3
2019-04-26T02:07:09.156Z,1008.68
2019-04-26T02:08:09.120Z,1008.8
2019-04-26T02:09:09.290Z,1008.68
2019-04-26T02:10:09.143Z,1008.82
2019-04-26T02:11:09.162Z,1008.25
2019-04-26T02:12:09.162Z,1007.27
2019-04-26T02:13:09.134Z,1006.51
2019-04-26T02:14:09.155Z,1005.76
2019-04-26T02:15:09.167Z,1005.38
2019-04-26T02:16:09.177Z,1004.85
2019-04-26T02:17:09.140Z,1004.27
2019-04-26T02:18:09.143Z,1003.93
2019-04-26T02:19:09.172Z,1003.62
2019-04-26T02:20:09.136Z,1003.78
2019-04-26T02:21:09.167Z,1003.68
2019-04-26T02:22:09.177Z,1003.34
2019-04-26T02:23:09.198Z,1003.03
2019-04-26T02:24:09.179Z,1002.67
2019-04-26T02:25:09.166Z,1001.77
2019-04-26T02:26:09.234Z,1000.73
2019-04-26T02:27:09.551Z,1000.3
2019-04-26T02:28:09.171Z,999.43
2019-04-26T02:29:09.205Z,999.32
2019-04-26T02:30:09.164Z,999.28
2019-04-26T02:31:09.163Z,999.07
2019-04-26T02:32:09.177Z,999.05
2019-04-26T02:33:09.184Z,999.47
2019-04-26T02:34:09.181Z,999.36
2019-04-26T02:35:09.198Z,999.87
2019-04-26T02:36:09.178Z,1000.34
2019-04-26T02:37:09.203Z,1000.67
2019-04-26T02:38:09.210Z,1000.73
2019-04-26T02:39:09.216Z,1000.4
2019-04-26T02:40:09.188Z,1000.24
2019-04-26T02:41:09.308Z,1000.03
2019-04-26T02:42:09.188Z,999.43
2019-04-26T02:43:09.208Z,999.55
2019-04-26T02:44:09.194Z,999.2
2019-04-26T02:45:09.201Z,998.5
2019-04-26T02:46:09.214Z,998.48
2019-04-26T02:47:09.242Z,998.08
2019-04-26T02:48:09.242Z,997.78
2019-04-26T02:49:09.233Z,997.79
2019-04-26T02:50:09.243Z,997.56
2019-04-26T02:51:09.210Z,997.32
2019-04-26T02:52:09.211Z,996.78
2019-04-26T02:53:09.199Z,996.17
2019-04-26T02:54:09.221Z,995.75
2019-04-26T02:55:09.227Z,995.18
2019-04-26T02:56:09.216Z,995.02
2019-04-26T02:57:09.200Z,994.83
2019-04-26T02:58:09.225Z,995.01
2019-04-26T02:59:09.215Z,995.03
2019-04-26T03:00:09.225Z,995.16
2019-04-26T03:01:09.234Z,995.04
2019-04-26T03:02:09.236Z,994.15
2019-04-26T03:03:09.239Z,992.87
2019-04-26T03:04:09.208Z,991.17
2019-04-26T03:05:09.211Z,989.11
2019-04-26T03:06:09.256Z,987.89
2019-04-26T03:07:09.219Z,986.91
2019-04-26T03:08:09.212Z,986.07
2019-04-26T03:09:09.258Z,985.79
2019-04-26T03:10:09.251Z,985.77
2019-04-26T03:11:09.301Z,985.3
2019-04-26T03:12:09.255Z,984.38
2019-04-26T03:13:09.277Z,983.88
2019-04-26T03:14:09.261Z,982.81
2019-04-26T03:15:13.648Z,981.18
2019-04-26T03:16:09.276Z,979.73
2019-04-26T03:17:09.266Z,978.51
2019-04-26T03:18:09.267Z,978.17
2019-04-26T03:19:09.237Z,977.43
2019-04-26T03:20:09.270Z,977.5
2019-04-26T03:21:09.272Z,977.9
2019-04-26T03:22:09.273Z,978.08
2019-04-26T03:23:09.263Z,978.55
2019-04-26T03:24:09.256Z,978.07
2019-04-26T03:25:09.278Z,978.01
2019-04-26T03:26:09.246Z,977.36
2019-04-26T03:27:09.255Z,977.02
2019-04-26T03:28:09.275Z,976.41
2019-04-26T03:29:09.264Z,976.32
2019-04-26T03:30:19.207Z,975.8
2019-04-26T03:31:09.258Z,975.8
2019-04-26T03:32:15.742Z,975.12
2019-04-26T03:33:09.474Z,974.98
2019-04-26T03:34:09.331Z,974.02
2019-04-26T03:35:09.444Z,972.66
2019-04-26T03:36:09.306Z,971.39
2019-04-26T03:37:19.962Z,970.57
2019-04-26T03:38:09.261Z,970.15
2019-04-26T03:39:09.272Z,970.16
2019-04-26T03:40:09.275Z,970.15
2019-04-26T03:41:13.077Z,970.12
2019-04-26T03:42:09.306Z,969.98
2019-04-26T03:43:09.296Z,970
2019-04-26T03:44:09.278Z,970.34
2019-04-26T03:45:09.301Z,970.46
2019-04-26T03:46:09.579Z,970.7
2019-04-26T03:47:09.279Z,970.65
2019-04-26T03:48:09.301Z,970.37
2019-04-26T03:49:09.309Z,969.81
2019-04-26T03:50:09.313Z,970.4
2019-04-26T03:51:09.291Z,970.5
2019-04-26T03:52:09.365Z,970.51
2019-04-26T03:53:09.292Z,970.15
2019-04-26T03:54:09.287Z,969.47
2019-04-26T03:55:09.307Z,969.61
2019-04-26T03:56:09.316Z,969.77
2019-04-26T03:57:12.987Z,969.5
2019-04-26T03:58:09.292Z,969.56
2019-04-26T03:59:09.314Z,969.41
2019-04-26T04:00:09.306Z,968.7
2019-04-26T04:01:09.310Z,969.41
2019-04-26T04:02:09.299Z,969.11
2019-04-26T04:03:09.323Z,968.89
2019-04-26T04:04:09.327Z,968.61
2019-04-26T04:05:09.336Z,967.68
2019-04-26T04:06:09.426Z,966.77
2019-04-26T04:07:09.334Z,966.39
2019-04-26T04:08:09.312Z,965.42
2019-04-26T04:09:09.349Z,965.83
2019-04-26T04:10:09.311Z,965.27
2019-04-26T04:11:11.392Z,964.9
2019-04-26T04:12:11.363Z,964.43
2019-04-26T04:13:09.335Z,964.04
2019-04-26T04:14:09.428Z,963.83
2019-04-26T04:15:09.348Z,963.88
2019-04-26T04:16:09.635Z,963.44
2019-04-26T04:17:09.344Z,962.94
2019-04-26T04:18:09.368Z,962.8
2019-04-26T04:19:09.358Z,963.04
2019-04-26T04:20:09.350Z,962.14
2019-04-26T04:21:09.334Z,961.67
2019-04-26T04:22:09.357Z,961.54
2019-04-26T04:23:09.364Z,961.85
2019-04-26T04:24:09.369Z,961.73
2019-04-26T04:25:09.360Z,961.39
2019-04-26T04:26:09.366Z,961.73
2019-04-26T04:27:09.349Z,960.82
2019-04-26T04:28:09.376Z,961.1
2019-04-26T04:29:09.364Z,960.91
2019-04-26T04:30:09.386Z,961.43
2019-04-26T04:31:09.379Z,961.44
2019-04-26T04:32:09.362Z,961.47
2019-04-26T04:33:09.344Z,961.58
2019-04-26T04:34:09.379Z,961.11
2019-04-26T04:35:09.427Z,960.98
2019-04-26T04:36:09.371Z,961.29
2019-04-26T04:37:09.400Z,960.93
2019-04-26T04:38:09.994Z,961.4
2019-04-26T04:39:12.112Z,961.56
2019-04-26T04:40:09.371Z,961.73
2019-04-26T04:41:21.280Z,962.14
2019-04-26T04:42:09.701Z,962.46
2019-04-26T04:43:09.430Z,962.7
2019-04-26T04:44:09.388Z,962.86
2019-04-26T04:45:09.375Z,963.22
2019-04-26T04:46:09.487Z,963.65
2019-04-26T04:47:23.329Z,964.28
2019-04-26T04:48:09.375Z,964.25
2019-04-26T04:49:09.381Z,964.5
2019-04-26T04:50:09.416Z,964.13
2019-04-26T04:51:09.427Z,963.71
2019-04-26T04:52:09.383Z,964.19
2019-04-26T04:53:09.440Z,963.93
2019-04-26T04:54:09.393Z,964.35
2019-04-26T04:55:09.415Z,964.35
2019-04-26T04:56:09.409Z,965.2
2019-04-26T04:57:09.411Z,965.59
2019-04-26T04:58:09.766Z,965.4
2019-04-26T04:59:09.388Z,965.35
2019-04-26T05:00:09.413Z,966.05
2019-04-26T05:01:09.397Z,966.97
2019-04-26T05:02:09.425Z,968.14
2019-04-26T05:03:09.388Z,969.1
2019-04-26T05:04:09.414Z,970.91
2019-04-26T05:05:09.426Z,972.17
2019-04-26T05:06:09.418Z,974.51
2019-04-26T05:07:09.396Z,976.03
2019-04-26T05:08:09.404Z,977.69
2019-04-26T05:09:09.433Z,980.08
2019-04-26T05:10:09.417Z,981.99
2019-04-26T05:11:19.985Z,984.01
2019-04-26T05:12:09.439Z,985.87
2019-04-26T05:13:09.441Z,987.23
2019-04-26T05:14:09.409Z,989.1
2019-04-26T05:15:09.459Z,991.08
2019-04-26T05:16:09.559Z,993.03
2019-04-26T05:17:09.511Z,994.86
2019-04-26T05:18:09.445Z,996.4
2019-04-26T05:19:09.443Z,997.66
2019-04-26T05:20:09.426Z,998.45
2019-04-26T05:21:09.558Z,999.66
2019-04-26T05:22:09.424Z,1001.19
2019-04-26T05:23:09.446Z,1002.73
2019-04-26T05:24:09.490Z,1003.5
2019-04-26T05:25:09.458Z,1004.55
2019-04-26T05:26:09.494Z,1006.44
2019-04-26T05:27:09.474Z,1008.25
2019-04-26T05:28:09.463Z,1010.04
2019-04-26T05:29:09.471Z,1012.36
2019-04-26T05:30:09.433Z,1014.03
2019-04-26T05:31:09.481Z,1015.71
2019-04-26T05:32:09.471Z,1017.48
2019-04-26T05:33:09.453Z,1019.02
2019-04-26T05:34:09.825Z,1020.55
2019-04-26T05:35:09.445Z,1022.07
2019-04-26T05:36:09.475Z,1022.32
2019-04-26T05:37:09.458Z,1024.19
2019-04-26T05:38:18.209Z,1024.9
2019-04-26T05:39:09.470Z,1025.71
2019-04-26T05:40:09.476Z,1027.42
2019-04-26T05:41:09.566Z,1029.41
2019-04-26T05:42:09.497Z,1029.8
2019-04-26T05:43:09.496Z,1030.96
2019-04-26T05:44:09.487Z,1033.44
2019-04-26T05:45:09.486Z,1034.11
2019-04-26T05:46:09.503Z,1034.9
2019-04-26T05:47:09.487Z,1035.06
2019-04-26T05:48:11.754Z,1036.97
2019-04-26T05:49:09.657Z,1037.96
2019-04-26T05:50:09.483Z,1038.68
2019-04-26T05:51:09.506Z,1039.67
2019-04-26T05:52:12.104Z,1040.61
2019-04-26T05:53:09.483Z,1041.78
2019-04-26T05:54:09.489Z,1043.77
2019-04-26T05:55:09.470Z,1054.27
2019-04-26T05:56:09.479Z,1071.17
2019-04-26T05:57:09.545Z,1083.74
2019-04-26T05:58:09.561Z,1089.18
2019-04-26T05:59:09.510Z,1080.75
2019-04-26T06:00:09.508Z,1091.35
2019-04-26T06:01:09.534Z,1098.24
2019-04-26T06:02:09.539Z,1099.74
2019-04-26T06:03:09.545Z,1100.06
2019-04-26T06:04:09.560Z,1101.72
2019-04-26T06:05:10.605Z,1105.98
2019-04-26T06:06:09.522Z,1110.96
2019-04-26T06:07:09.557Z,1114.81
2019-04-26T06:08:09.519Z,1116.57
2019-04-26T06:09:09.502Z,1117.93
2019-04-26T06:10:09.510Z,1119.16
2019-04-26T06:11:09.516Z,1119.73
2019-04-26T06:12:12.306Z,1121
2019-04-26T06:13:09.578Z,1121.83
2019-04-26T06:14:09.542Z,1120.68
2019-04-26T06:15:09.527Z,1122.54
2019-04-26T06:16:09.545Z,1123.24
2019-04-26T06:17:09.639Z,1122.74
2019-04-26T06:18:09.550Z,1122.7
2019-04-26T06:19:09.573Z,1121.53
2019-04-26T06:20:21.861Z,1120.68
2019-04-26T06:21:10.381Z,1120.69
2019-04-26T06:22:09.529Z,1118.81
2019-04-26T06:23:09.557Z,1117.13
2019-04-26T06:24:09.533Z,1115.76
2019-04-26T06:25:09.580Z,1114.16
2019-04-26T06:26:09.565Z,1112.22
2019-04-26T06:27:14.056Z,1109.93
2019-04-26T06:28:09.534Z,1107.65
2019-04-26T06:29:09.561Z,1105.41
2019-04-26T06:30:09.608Z,1102.92
2019-04-26T06:31:09.567Z,1100.58
2019-04-26T06:32:09.558Z,1098.48
2019-04-26T06:33:10.336Z,1096.77
2019-04-26T06:34:09.588Z,1095.29
2019-04-26T06:35:09.620Z,1093.56
2019-04-26T06:36:09.597Z,1091.58
2019-04-26T06:37:09.589Z,1089.59
2019-04-26T06:38:09.593Z,1087.83
2019-04-26T06:39:09.594Z,1086.22
2019-04-26T06:40:09.553Z,1084.84
2019-04-26T06:41:09.598Z,1083.53
2019-04-26T06:42:09.598Z,1082.7
2019-04-26T06:43:09.612Z,1081.5
2019-04-26T06:44:09.602Z,1080.84
2019-04-26T06:45:09.629Z,1080.91
2019-04-26T06:46:09.618Z,1080.54
2019-04-26T06:47:09.631Z,1079.88
2019-04-26T06:48:09.627Z,1080.76
2019-04-26T06:49:09.616Z,1080.87
2019-04-26T06:50:10.240Z,1080.8
2019-04-26T06:51:22.273Z,1079.91
2019-04-26T06:52:09.647Z,1079.36
2019-04-26T06:53:09.620Z,1078.99
2019-04-26T06:54:10.201Z,1078.55
2019-04-26T06:55:09.596Z,1077.66
2019-04-26T06:56:09.620Z,1076.75
2019-04-26T06:57:14.012Z,1075.68
2019-04-26T06:58:09.631Z,1074.72
2019-04-26T06:59:09.633Z,1073.5
2019-04-26T07:00:09.639Z,1072.35
2019-04-26T07:01:09.712Z,1071.5
2019-04-26T07:02:09.639Z,1070.73
2019-04-26T07:03:09.601Z,1069.57
2019-04-26T07:04:09.956Z,1068.11
2019-04-26T07:05:09.655Z,1067.31
2019-04-26T07:06:09.644Z,1066.78
2019-04-26T07:07:09.628Z,1066.29
2019-04-26T07:08:09.634Z,1065.93
2019-04-26T07:09:09.664Z,1065.67
2019-04-26T07:10:09.647Z,1064.6
2019-04-26T07:11:09.723Z,1063.96
2019-04-26T07:12:09.636Z,1063.45
2019-04-26T07:13:09.769Z,1063.09
2019-04-26T07:14:09.657Z,1062.21
2019-04-26T07:15:09.614Z,1061.58
2019-04-26T07:16:19.376Z,1061.02
2019-04-26T07:17:09.659Z,1060.31
2019-04-26T07:18:10.643Z,1059.77
2019-04-26T07:19:09.629Z,1060.12
2019-04-26T07:20:09.614Z,1060.1
2019-04-26T07:21:09.646Z,1060.76
2019-04-26T07:22:09.648Z,1061.31
2019-04-26T07:23:09.634Z,1061.75
2019-04-26T07:24:09.620Z,1061.67
2019-04-26T07:25:09.631Z,1061.95
2019-04-26T07:26:09.634Z,1062.3
2019-04-26T07:27:09.659Z,1062.63
2019-04-26T07:28:11.898Z,1062.79
2019-04-26T07:29:09.664Z,1063.47
2019-04-26T07:30:09.891Z,1064.31
2019-04-26T07:31:09.683Z,1064.69
2019-04-26T07:32:09.654Z,1065.26
2019-04-26T07:33:09.666Z,1065.07
2019-04-26T07:34:09.651Z,1064.51
2019-04-26T07:35:09.654Z,1064.24
2019-04-26T07:36:09.857Z,1063.96
2019-04-26T07:37:09.685Z,1063.89
2019-04-26T07:38:09.678Z,1063.91
2019-04-26T07:39:18.101Z,1064.11
2019-04-26T07:40:09.650Z,1064.41
2019-04-26T07:41:09.677Z,1065.08
2019-04-26T07:42:11.492Z,1065.45
2019-04-26T07:43:10.425Z,1065.89
2019-04-26T07:44:09.774Z,1065.67
2019-04-26T07:45:10.303Z,1065.72
2019-04-26T07:46:10.633Z,1066.33
2019-04-26T07:47:10.830Z,1066.68
2019-04-26T07:48:09.661Z,1067.38
2019-04-26T07:49:10.239Z,1068.1
2019-04-26T07:50:09.688Z,1068.93
2019-04-26T07:51:09.677Z,1069.42
2019-04-26T07:52:10.533Z,1069.44
2019-04-26T07:53:09.689Z,1069.55
2019-04-26T07:54:09.704Z,1069.7
2019-04-26T07:55:10.786Z,1069.61
2019-04-26T07:56:09.711Z,1069.49
2019-04-26T07:57:10.735Z,1069.57
2019-04-26T07:58:09.700Z,1069.85
2019-04-26T07:59:10.632Z,1070.27
2019-04-26T08:00:10.837Z,1070.75
2019-04-26T08:01:09.902Z,1071.33
2019-04-26T08:02:09.699Z,1071.62
2019-04-26T08:03:10.549Z,1071.81
2019-04-26T08:04:09.700Z,1071.65
2019-04-26T08:05:09.711Z,1071.53
2019-04-26T08:06:09.715Z,1071.29
2019-04-26T08:07:10.341Z,1071.28
2019-04-26T08:08:10.731Z,1071.46
2019-04-26T08:09:17.593Z,1071.82
2019-04-26T08:10:10.021Z,1071.97
2019-04-26T08:11:10.734Z,1072.09
2019-04-26T08:12:09.998Z,1071.82
2019-04-26T08:16:38.465Z,1070.23
2019-04-26T08:17:39.267Z,1070.47
2019-04-26T08:18:38.458Z,1070.75
2019-04-26T08:19:38.470Z,1070.9
2019-04-26T08:20:38.619Z,1071.27
2019-04-26T08:21:38.497Z,1071.36
2019-04-26T08:22:38.455Z,1071.67
2019-04-26T08:23:41.878Z,1071.37
2019-04-26T08:24:38.499Z,1071.86
2019-04-26T08:25:38.476Z,1071.63
2019-04-26T08:26:38.461Z,1071.69
2019-04-26T08:27:38.451Z,1071.46
2019-04-26T08:28:38.538Z,1070.98
2019-04-26T08:29:38.482Z,1070.25
2019-04-26T08:30:40.420Z,1069.71
2019-04-26T08:31:38.479Z,1069.27
2019-04-26T08:32:38.473Z,1069.3
2019-04-26T08:33:40.364Z,1069.26
2019-04-26T08:34:38.484Z,1069.47
2019-04-26T08:35:38.525Z,1070.02
2019-04-26T08:36:38.469Z,1070.25
2019-04-26T08:37:38.457Z,1070.2
2019-04-26T08:38:38.544Z,1069.74
2019-04-26T08:39:45.062Z,1069.86
2019-04-26T08:40:38.690Z,1069.58
2019-04-26T08:41:46.262Z,1069.62
2019-04-26T08:42:38.590Z,1069.87
2019-04-26T08:43:38.505Z,1070.77
2019-04-26T08:44:38.492Z,1071.29
2019-04-26T08:45:40.426Z,1072.61
2019-04-26T08:46:38.543Z,1073.46
2019-04-26T08:47:38.488Z,1074.72
2019-04-26T08:48:38.495Z,1075.27
2019-04-26T08:49:39.038Z,1075.73
2019-04-26T08:50:42.142Z,1076.91
2019-04-26T08:51:38.514Z,1077.68
2019-04-26T08:52:38.517Z,1078.17
2019-04-26T08:53:38.481Z,1078.41
2019-04-26T08:54:38.509Z,1078.69
2019-04-26T08:55:38.521Z,1079.01
2019-04-26T08:56:38.486Z,1079.78
2019-04-26T08:57:38.512Z,1079.69
2019-04-26T08:58:38.558Z,1080.16
2019-04-26T08:59:38.523Z,1079.73
2019-04-26T09:00:38.610Z,1079.57
2019-04-26T09:01:38.562Z,1079.83
2019-04-26T09:02:38.517Z,1079.6
2019-04-26T09:03:38.602Z,1079.46
2019-04-26T09:04:38.519Z,1079.16
2019-04-26T09:05:38.735Z,1079.4
2019-04-26T09:06:38.534Z,1079
2019-04-26T09:07:38.544Z,1078.9
2019-04-26T09:08:39.152Z,1078.89
2019-04-26T09:09:38.527Z,1078.82
2019-04-26T09:10:39.194Z,1078.42
2019-04-26T09:11:58.848Z,1077.83
2019-04-26T09:12:38.547Z,1077.55
2019-04-26T09:13:38.535Z,1077.38
2019-04-26T09:14:38.519Z,1076.99
2019-04-26T09:15:40.611Z,1076.48
2019-04-26T09:16:49.750Z,1076.43
2019-04-26T09:17:38.534Z,1075.65
2019-04-26T09:18:43.309Z,1075.22
2019-04-26T09:19:38.539Z,1074.01
2019-04-26T09:20:42.754Z,1073.24
2019-04-26T09:21:38.552Z,1072.54
2019-04-26T09:22:38.525Z,1071.93
2019-04-26T09:23:40.017Z,1071.2
2019-04-26T09:24:38.541Z,1070.37
2019-04-26T09:25:39.206Z,1069.65
2019-04-26T09:26:42.311Z,1069.36
2019-04-26T09:27:38.547Z,1069.5
2019-04-26T09:28:38.571Z,1069.38
2019-04-26T09:29:38.578Z,1069.33
2019-04-26T09:30:42.267Z,1069.31
2019-04-26T09:31:38.565Z,1069.49
2019-04-26T09:32:38.555Z,1069.72
2019-04-26T09:33:38.562Z,1069.59
2019-04-26T09:34:41.202Z,1069.76
2019-04-26T09:35:38.604Z,1069.65
2019-04-26T09:36:38.579Z,1069.86
2019-04-26T09:37:38.865Z,1069.62
2019-04-26T09:38:38.552Z,1069.87
2019-04-26T09:39:41.524Z,1070.17
2019-04-26T09:40:39.549Z,1070.33
2019-04-26T09:41:48.987Z,1070.06
2019-04-26T09:42:39.681Z,1070.36
2019-04-26T09:43:38.567Z,1071.08
2019-04-26T09:44:41.313Z,1071.51
2019-04-26T09:45:38.581Z,1071.79
2019-04-26T09:46:38.607Z,1071.82
2019-04-26T09:47:38.569Z,1072.4
2019-04-26T09:48:38.595Z,1071.79
2019-04-26T09:49:41.112Z,1071.81
2019-04-26T09:50:38.675Z,1071.53
2019-04-26T09:51:39.005Z,1071.59
2019-04-26T09:52:38.605Z,1071.69
2019-04-26T09:53:39.408Z,1071.63
2019-04-26T09:54:38.600Z,1071.15
2019-04-26T09:55:38.586Z,1070.87
2019-04-26T09:56:38.615Z,1070.54
2019-04-26T09:57:38.614Z,1070.36
2019-04-26T09:58:38.620Z,1069.76
2019-04-26T09:59:39.888Z,1069.6
2019-04-26T10:00:38.694Z,1069.61
2019-04-26T10:01:38.600Z,1069.64
2019-04-26T10:02:38.630Z,1069.71
2019-04-26T10:03:38.613Z,1069.41
2019-04-26T10:04:38.597Z,1068.89
2019-04-26T10:05:38.653Z,1068.61
2019-04-26T10:06:38.629Z,1067.94
2019-04-26T10:07:38.901Z,1067.4
2019-04-26T10:08:38.602Z,1066.92
2019-04-26T10:09:38.653Z,1066.3
2019-04-26T10:10:38.739Z,1066.02
2019-04-26T10:11:46.882Z,1065.73
2019-04-26T10:12:38.635Z,1065.33
2019-04-26T10:13:38.636Z,1065
2019-04-26T10:14:38.640Z,1064.1
2019-04-26T10:15:39.079Z,1063.98
2019-04-26T10:16:42.125Z,1063.52
2019-04-26T10:17:38.621Z,1062.96
2019-04-26T10:18:38.633Z,1062.74
2019-04-26T10:19:38.641Z,1062.82
2019-04-26T10:20:39.213Z,1062.61
2019-04-26T10:21:38.666Z,1063.3
2019-04-26T10:22:38.632Z,1063.37
2019-04-26T10:23:38.659Z,1063.2
2019-04-26T10:24:38.663Z,1063.12
2019-04-26T10:25:38.633Z,1063.26
2019-04-26T10:26:38.706Z,1062.81
2019-04-26T10:27:40.619Z,1062.95
2019-04-26T10:28:38.696Z,1062.58
2019-04-26T10:29:38.658Z,1062.49
2019-04-26T10:30:42.266Z,1062.71
2019-04-26T10:31:38.653Z,1062.31
2019-04-26T10:32:38.662Z,1062.03
2019-04-26T10:33:38.646Z,1062.26
2019-04-26T10:34:38.672Z,1062.07
2019-04-26T10:35:38.656Z,1062.25
2019-04-26T10:36:38.666Z,1062.22
2019-04-26T10:37:39.372Z,1062.57
2019-04-26T10:38:38.657Z,1062.53
2019-04-26T10:39:38.683Z,1062.4
2019-04-26T10:40:38.697Z,1062.17
2019-04-26T10:41:38.662Z,1061.98
2019-04-26T10:42:38.695Z,1061.82
2019-04-26T10:43:38.683Z,1061.86
2019-04-26T10:44:39.776Z,1061.54
2019-04-26T10:45:38.698Z,1061.2
2019-04-26T10:46:38.675Z,1060.95
2019-04-26T10:47:39.880Z,1060.28
2019-04-26T10:48:41.211Z,1059.4
2019-04-26T10:49:38.702Z,1058.44
2019-04-26T10:50:38.718Z,1057.59
2019-04-26T10:51:41.858Z,1056.45
2019-04-26T10:52:38.682Z,1055.25
2019-04-26T10:53:38.703Z,1054.57
2019-04-26T10:54:40.957Z,1053.99
2019-04-26T10:55:39.828Z,1053.7
2019-04-26T10:56:38.725Z,1053.72
2019-04-26T10:57:38.695Z,1053.89
2019-04-26T10:58:38.719Z,1054.04
2019-04-26T10:59:39.694Z,1054.12
2019-04-26T11:00:38.716Z,1054.21
2019-04-26T11:01:38.717Z,1054.15
2019-04-26T11:02:38.806Z,1054.62
2019-04-26T11:03:38.712Z,1055.2
2019-04-26T11:04:41.328Z,1056.04
2019-04-26T11:05:38.721Z,1056.55
2019-04-26T11:06:38.746Z,1056.73
2019-04-26T11:07:38.719Z,1057.03
2019-04-26T11:08:38.718Z,1057.02
2019-04-26T11:09:38.725Z,1056.94
2019-04-26T11:10:48.292Z,1057.39
2019-04-26T11:11:38.742Z,1057.48
2019-04-26T11:12:39.548Z,1057.88
2019-04-26T11:13:38.772Z,1058.21
2019-04-26T11:14:38.719Z,1058.67
2019-04-26T11:15:38.734Z,1059.39
2019-04-26T11:16:41.102Z,1060.29
2019-04-26T11:17:38.716Z,1061.12
2019-04-26T11:18:38.748Z,1062.25
2019-04-26T11:19:38.775Z,1062.44
2019-04-26T11:20:41.310Z,1063
2019-04-26T11:21:38.722Z,1063.19
2019-04-26T11:22:39.098Z,1063.66
2019-04-26T11:23:40.992Z,1063.75
2019-04-26T11:24:39.090Z,1063.76
2019-04-26T11:25:38.729Z,1063.72
2019-04-26T11:26:38.756Z,1063.44
2019-04-26T11:27:40.045Z,1063.09
2019-04-26T11:28:38.751Z,1062.25
2019-04-26T11:29:38.756Z,1061.36
2019-04-26T11:30:38.768Z,1060.17
2019-04-26T11:31:38.779Z,1059.37
2019-04-26T11:32:38.773Z,1058.56
2019-04-26T11:33:44.597Z,1057.67
2019-04-26T11:35:55.716Z,1058.14
2019-04-26T11:36:55.703Z,1058.1
2019-04-26T11:37:56.953Z,1058.03
2019-04-26T11:38:55.679Z,1058.14
2019-04-26T11:39:55.707Z,1058.32
2019-04-26T11:41:05.721Z,1058.07
2019-04-26T11:41:59.286Z,1057.66
2019-04-26T11:46:45.610Z,1057.08
2019-04-26T11:47:55.380Z,1057.43
2019-04-26T11:48:45.256Z,1057.56
2019-04-26T11:49:45.282Z,1057.5
2019-04-26T11:50:48.156Z,1057.13
2019-04-26T11:51:46.545Z,1056.98
2019-04-26T11:52:45.304Z,1056.99
2019-04-26T11:53:46.226Z,1056.59
2019-04-26T11:54:45.297Z,1056.59
2019-04-26T11:55:45.287Z,1056.15
2019-04-26T11:56:45.294Z,1055.62
2019-04-26T11:57:47.430Z,1054.64
2019-04-26T11:58:45.309Z,1053.93
2019-04-26T11:59:45.294Z,1052.95
2019-04-26T12:00:45.278Z,1052
2019-04-26T12:01:45.298Z,1051.35
2019-04-26T12:02:46.172Z,1051.37
2019-04-26T12:03:45.298Z,1051.28
2019-04-26T12:04:45.303Z,1051.68
2019-04-26T12:05:45.308Z,1051.95
2019-04-26T12:06:45.293Z,1051.99
2019-04-26T12:07:45.320Z,1052.36
2019-04-26T12:08:45.290Z,1052.28
2019-04-26T12:09:45.314Z,1051.67
2019-04-26T12:10:45.891Z,1050.54
2019-04-26T12:11:49.574Z,1049.88
2019-04-26T12:12:46.771Z,1049.54
2019-04-26T12:13:45.338Z,1049.32
2019-04-26T12:14:45.323Z,1049.05
2019-04-26T12:15:45.461Z,1048.91
2019-04-26T12:16:48.192Z,1049
2019-04-26T12:17:58.026Z,1049.11
2019-04-26T12:18:45.667Z,1049.23
2019-04-26T12:19:48.124Z,1049.38
2019-04-26T12:20:45.305Z,1049.95
2019-04-26T12:21:45.698Z,1050.05
2019-04-26T12:22:45.320Z,1050.74